BEG weather

Belgrade Nikola Tesla Airport
Belgrade, Beograd (city), Serbia

Public forecast

Using degrees Celsius for public forecast. Weather courtesy of forecast.io.

Current aviation weather report (METAR) for Belgrade Nikola Tesla Airport

Retrieved 2019/11/20 13:30 UTC (7 minutes ago):

LYBE 201330Z 14021KT CAVOK 16/10 Q1012 NOSIG

Aviation forecast (TAF) for Belgrade Nikola Tesla Airport

Retrieved 2019/11/20 12:21 UTC (1 hour ago):

TAF LYBE 201100Z 2012/2112 12012KT CAVOK TX15/2013Z TN08/2105Z TEMPO 2012/2015 13016G28KT RA BECMG 2022/2024 15006KT